Time;durP1;ratioP1;P1;durP2;ratioP2;P2;SDS_P1;SDS_P2;PMS_P1;PMS_P2;Temp;Humidity;BMP_temperature;BMP_pressure;BME280_temperature;BME280_humidity;BME280_pressure;Samples;Min_cycle;Max_cycle;Signal;HPM_P1;HPM_P2
2021/08/13 00:01:35;;;;;;;8.77;7.87;;;21.30;99.90;;;;;;5137073;27;20444;-46
2021/08/13 00:04:02;;;;;;;8.73;7.13;;;21.30;99.90;;;;;;5136887;27;20439;-48
2021/08/13 00:06:29;;;;;;;7.70;6.37;;;21.30;99.90;;;;;;5136790;27;20444;-43
2021/08/13 00:08:56;;;;;;;8.37;7.57;;;21.20;99.90;;;;;;5136477;27;20496;-45
2021/08/13 00:11:27;;;;;;;9.23;7.50;;;21.20;99.90;;;;;;5136511;27;20837;-46
2021/08/13 00:13:53;;;;;;;10.80;8.20;;;21.20;99.90;;;;;;5136372;27;20497;-47
2021/08/13 00:16:20;;;;;;;9.43;7.30;;;21.20;99.90;;;;;;5136497;27;20471;-44
2021/08/13 00:18:46;;;;;;;9.40;7.50;;;21.20;99.90;;;;;;5136817;27;20439;-46
2021/08/13 00:21:13;;;;;;;12.33;8.10;;;21.20;99.90;;;;;;5136663;27;20829;-49
2021/08/13 00:23:40;;;;;;;10.47;7.57;;;21.10;99.90;;;;;;5136485;27;20435;-42
2021/08/13 00:26:07;;;;;;;13.57;7.33;;;21.10;99.90;;;;;;5136905;27;20456;-45
2021/08/13 00:28:35;;;;;;;8.13;7.30;;;21.10;99.90;;;;;;5136651;27;20507;-45
2021/08/13 00:31:01;;;;;;;12.30;7.87;;;21.10;99.90;;;;;;5136845;27;20506;-49
2021/08/13 00:33:28;;;;;;;8.40;7.43;;;21.10;99.90;;;;;;5136291;27;20970;-45
2021/08/13 00:35:55;;;;;;;9.03;7.60;;;21.10;99.90;;;;;;5136413;27;20435;-43
2021/08/13 00:38:21;;;;;;;16.80;8.10;;;21.10;99.90;;;;;;5136756;27;20440;-42
2021/08/13 00:40:48;;;;;;;10.00;8.30;;;21.10;99.90;;;;;;5136339;27;20439;-48
2021/08/13 00:43:15;;;;;;;8.40;7.43;;;21.00;99.90;;;;;;5136583;27;20459;-42
2021/08/13 00:45:43;;;;;;;8.17;6.93;;;21.00;99.90;;;;;;5136189;27;20443;-49
2021/08/13 00:48:10;;;;;;;11.73;7.43;;;20.90;99.90;;;;;;5136645;28;20436;-42
2021/08/13 00:50:37;;;;;;;8.50;7.27;;;20.90;99.90;;;;;;5136301;28;20535;-47
2021/08/13 00:53:05;;;;;;;8.80;7.90;;;20.90;99.90;;;;;;5136055;28;20481;-43
2021/08/13 00:55:31;;;;;;;8.60;7.73;;;20.80;99.90;;;;;;5136576;28;20496;-51
2021/08/13 00:57:59;;;;;;;8.40;7.37;;;20.90;99.90;;;;;;5136148;28;20520;-45
2021/08/13 01:00:26;;;;;;;12.73;8.57;;;20.90;99.90;;;;;;5136242;28;20444;-46
2021/08/13 01:02:55;;;;;;;13.00;8.10;;;20.90;99.90;;;;;;5135925;28;20500;-50
2021/08/13 01:05:21;;;;;;;8.40;7.60;;;20.90;99.90;;;;;;5136271;28;20522;-47
2021/08/13 01:07:48;;;;;;;9.60;7.80;;;20.90;99.90;;;;;;5136430;28;20451;-47
2021/08/13 01:10:15;;;;;;;11.03;8.23;;;20.90;99.90;;;;;;5135845;28;20470;-44
2021/08/13 01:12:51;;;;;;;9.87;7.37;;;21.00;99.90;;;;;;5135583;28;20532;-42
2021/08/13 01:15:19;;;;;;;8.20;7.40;;;21.00;99.90;;;;;;5136188;28;20435;-41
2021/08/13 01:17:51;;;;;;;11.67;7.80;;;20.90;99.90;;;;;;5136761;28;20504;-42
2021/08/13 01:20:45;;;;;;;9.97;8.97;;;20.90;99.90;;;;;;5135956;28;20428;-47
2021/08/13 01:23:16;;;;;;;13.30;7.80;;;20.90;99.90;;;;;;5136292;28;20463;-44
2021/08/13 01:25:45;;;;;;;9.53;7.23;;;20.80;99.90;;;;;;5136162;28;20512;-48
2021/08/13 01:28:26;;;;;;;9.03;8.13;;;20.80;99.90;;;;;;5136004;28;20496;-45
2021/08/13 01:30:53;;;;;;;8.70;7.80;;;20.80;99.90;;;;;;5135845;28;20475;-44
2021/08/13 01:33:22;;;;;;;17.33;8.00;;;20.80;99.90;;;;;;5136149;28;20505;-48
2021/08/13 01:35:50;;;;;;;8.83;7.97;;;20.80;99.90;;;;;;5135550;28;20512;-49
2021/08/13 01:38:22;;;;;;;11.10;8.37;;;20.70;99.90;;;;;;5136147;28;20769;-46
2021/08/13 01:40:50;;;;;;;11.97;8.33;;;20.80;99.90;;;;;;5136068;28;20435;-43
2021/08/13 01:43:18;;;;;;;14.73;7.50;;;20.80;99.90;;;;;;5135889;27;20447;-44
2021/08/13 01:45:46;;;;;;;8.77;7.83;;;20.70;99.90;;;;;;5136220;28;20648;-45
2021/08/13 01:48:13;;;;;;;14.70;9.10;;;20.70;99.90;;;;;;5135785;27;20782;-42
2021/08/13 01:50:42;;;;;;;8.60;7.67;;;20.70;99.90;;;;;;5135827;28;20487;-43
2021/08/13 01:53:10;;;;;;;9.20;8.30;;;20.70;99.90;;;;;;5136236;27;20496;-42
2021/08/13 01:55:37;;;;;;;13.37;9.30;;;20.60;99.90;;;;;;5139113;27;20455;-47
2021/08/13 01:58:04;;;;;;;8.90;8.10;;;20.70;99.90;;;;;;5139752;27;20463;-42
2021/08/13 02:00:31;;;;;;;15.37;7.77;;;20.60;99.90;;;;;;5139672;27;20435;-42
2021/08/13 02:03:00;;;;;;;9.10;8.10;;;20.60;99.90;;;;;;5139851;27;20467;-41
2021/08/13 02:05:30;;;;;;;8.60;7.77;;;20.60;99.90;;;;;;5139336;27;20478;-48
2021/08/13 02:08:00;;;;;;;8.87;7.97;;;20.50;99.90;;;;;;5139528;27;20834;-42
2021/08/13 02:10:27;;;;;;;14.37;8.00;;;20.50;99.90;;;;;;5139605;27;20578;-53
2021/08/13 02:12:54;;;;;;;8.20;7.50;;;20.50;99.90;;;;;;5139391;27;20845;-45
2021/08/13 02:15:21;;;;;;;9.73;7.93;;;20.50;99.90;;;;;;5139673;27;20439;-45
2021/08/13 02:17:56;;;;;;;10.00;8.40;;;20.60;99.90;;;;;;5139778;27;20448;-43
2021/08/13 02:20:27;;;;;;;10.47;8.43;;;20.50;99.90;;;;;;5139028;27;20455;-43
2021/08/13 02:22:54;;;;;;;9.60;8.50;;;20.50;99.90;;;;;;5139618;27;20420;-45
2021/08/13 02:25:22;;;;;;;11.80;8.17;;;20.50;99.90;;;;;;5138883;27;20800;-44
2021/08/13 02:27:49;;;;;;;8.87;7.97;;;20.50;99.90;;;;;;5139365;27;20931;-42
2021/08/13 02:30:16;;;;;;;8.20;7.47;;;20.40;99.90;;;;;;5139489;27;20512;-44
2021/08/13 02:32:44;;;;;;;10.53;9.43;;;20.40;99.90;;;;;;5139194;27;20435;-44
2021/08/13 02:35:12;;;;;;;10.60;8.43;;;20.40;99.90;;;;;;5139276;27;20535;-45
2021/08/13 02:37:43;;;;;;;10.13;8.70;;;20.30;99.90;;;;;;5139255;27;20451;-42
2021/08/13 02:40:13;;;;;;;10.60;7.40;;;20.30;99.90;;;;;;5139321;27;20416;-42
2021/08/13 02:42:46;;;;;;;9.17;8.10;;;20.30;99.90;;;;;;5139318;27;20494;-43
2021/08/13 02:45:16;;;;;;;10.07;7.90;;;20.40;99.90;;;;;;5138923;27;20459;-44
2021/08/13 02:47:45;;;;;;;11.17;8.87;;;20.40;99.90;;;;;;5139399;27;20910;-44
2021/08/13 02:50:13;;;;;;;9.90;9.00;;;20.40;99.90;;;;;;5138984;27;20509;-42
2021/08/13 02:52:45;;;;;;;8.43;7.60;;;20.40;99.90;;;;;;5138711;27;20460;-49
2021/08/13 02:55:16;;;;;;;12.33;7.63;;;20.40;99.90;;;;;;5138480;27;20451;-47
2021/08/13 02:57:48;;;;;;;8.20;7.40;;;20.40;99.90;;;;;;5138550;27;20538;-46
2021/08/13 03:00:16;;;;;;;9.27;8.30;;;20.40;99.90;;;;;;5138458;27;20428;-45
2021/08/13 03:02:43;;;;;;;10.83;9.73;;;20.30;99.90;;;;;;5138558;27;20519;-45
2021/08/13 03:05:11;;;;;;;14.00;8.67;;;20.40;99.90;;;;;;5138913;27;20503;-51
2021/08/13 03:07:39;;;;;;;10.27;7.50;;;20.30;99.90;;;;;;5138804;27;20501;-43
2021/08/13 03:10:09;;;;;;;11.40;8.47;;;20.30;99.90;;;;;;5138303;27;20529;-44
2021/08/13 03:12:38;;;;;;;8.70;7.80;;;20.30;99.90;;;;;;5138480;27;20694;-46
2021/08/13 03:15:07;;;;;;;10.67;8.17;;;20.20;99.90;;;;;;5138420;27;21053;-45
2021/08/13 03:17:34;;;;;;;10.37;7.57;;;20.20;99.90;;;;;;5138418;27;20447;-41
2021/08/13 03:20:04;;;;;;;8.93;8.03;;;20.20;99.90;;;;;;5138361;27;20439;-48
2021/08/13 03:22:30;;;;;;;9.70;8.10;;;20.30;99.90;;;;;;5138893;27;20513;-41
2021/08/13 03:24:58;;;;;;;9.73;8.63;;;20.30;99.90;;;;;;5138726;27;20444;-42
2021/08/13 03:27:25;;;;;;;10.00;8.03;;;20.30;99.90;;;;;;5138493;27;20455;-41
2021/08/13 03:29:52;;;;;;;9.00;8.10;;;20.20;99.90;;;;;;5138335;27;20833;-42
2021/08/13 03:32:20;;;;;;;9.50;8.60;;;20.20;99.90;;;;;;5138348;27;20444;-42
2021/08/13 03:34:48;;;;;;;10.20;9.03;;;20.20;99.90;;;;;;5138226;27;20468;-42
2021/08/13 03:37:15;;;;;;;10.20;8.80;;;20.20;99.90;;;;;;5138792;27;20504;-45
2021/08/13 03:39:42;;;;;;;10.57;9.17;;;20.30;99.90;;;;;;5138494;27;20443;-42
2021/08/13 03:42:08;;;;;;;9.67;8.07;;;20.30;99.90;;;;;;5138748;27;20523;-43
2021/08/13 03:44:35;;;;;;;10.73;9.13;;;20.30;99.90;;;;;;5137847;27;20456;-46
2021/08/13 03:47:02;;;;;;;9.93;8.67;;;20.20;99.90;;;;;;5138591;27;20829;-51
2021/08/13 03:49:30;;;;;;;9.93;9.00;;;20.20;99.90;;;;;;5137830;27;20444;-48
2021/08/13 03:51:57;;;;;;;9.37;8.47;;;20.20;99.90;;;;;;5138073;27;20781;-43
2021/08/13 03:54:24;;;;;;;13.00;9.20;;;20.20;99.90;;;;;;5138040;27;20454;-45
2021/08/13 03:56:50;;;;;;;9.47;8.53;;;20.20;99.90;;;;;;5138051;27;20436;-42
2021/08/13 03:59:17;;;;;;;8.83;8.00;;;20.20;99.90;;;;;;5137740;27;20444;-49
2021/08/13 04:01:44;;;;;;;9.53;8.53;;;20.20;99.90;;;;;;5137622;27;20807;-45
2021/08/13 04:04:11;;;;;;;9.70;8.27;;;20.20;99.90;;;;;;5137703;27;20439;-43
2021/08/13 04:06:39;;;;;;;9.27;8.30;;;20.20;99.90;;;;;;5138249;27;20892;-43
2021/08/13 04:09:05;;;;;;;9.23;8.30;;;20.20;99.90;;;;;;5137615;27;20512;-42
2021/08/13 04:11:32;;;;;;;9.20;8.40;;;20.20;99.90;;;;;;5137459;27;20528;-42
2021/08/13 04:13:59;;;;;;;10.87;8.70;;;20.20;99.90;;;;;;5136820;27;20505;-46
2021/08/13 04:16:25;;;;;;;11.57;9.30;;;20.30;99.90;;;;;;5137133;27;20444;-42
2021/08/13 04:18:52;;;;;;;11.60;8.27;;;20.30;99.90;;;;;;5137021;27;21046;-42
2021/08/13 04:21:19;;;;;;;10.30;9.30;;;20.30;99.90;;;;;;5137313;27;20473;-43
2021/08/13 04:23:46;;;;;;;11.13;10.00;;;20.30;99.90;;;;;;5137133;27;20503;-48
2021/08/13 04:26:13;;;;;;;11.60;8.63;;;20.40;99.90;;;;;;5136926;27;20456;-43
2021/08/13 04:28:40;;;;;;;8.97;8.07;;;20.40;99.90;;;;;;5137345;27;20436;-44
2021/08/13 04:31:07;;;;;;;9.43;8.40;;;20.40;99.90;;;;;;5137212;27;20885;-50
2021/08/13 04:33:35;;;;;;;11.87;8.30;;;20.50;99.90;;;;;;5137090;27;20511;-41
2021/08/13 04:36:01;;;;;;;9.90;8.87;;;20.50;99.90;;;;;;5137380;27;20463;-44
2021/08/13 04:38:28;;;;;;;11.43;9.00;;;20.50;99.90;;;;;;5137133;27;20473;-44
2021/08/13 04:40:56;;;;;;;10.00;9.00;;;20.50;99.90;;;;;;5136985;27;20450;-46
2021/08/13 04:43:23;;;;;;;18.03;9.90;;;20.50;99.90;;;;;;5135909;27;20452;-43
2021/08/13 04:45:49;;;;;;;9.40;8.43;;;20.50;99.90;;;;;;5136708;27;20431;-42
2021/08/13 04:48:16;;;;;;;9.27;8.37;;;20.50;99.90;;;;;;5137173;27;20524;-41
2021/08/13 04:50:43;;;;;;;12.70;9.20;;;20.50;99.90;;;;;;5136510;28;20475;-42
2021/08/13 04:53:09;;;;;;;11.07;9.90;;;20.50;99.90;;;;;;5136939;28;20469;-44
2021/08/13 04:55:36;;;;;;;10.77;8.23;;;20.50;99.90;;;;;;5136569;28;20503;-42
2021/08/13 04:58:05;;;;;;;9.93;8.03;;;20.60;99.90;;;;;;5136581;28;20471;-42
2021/08/13 05:00:32;;;;;;;10.37;8.80;;;20.60;99.90;;;;;;5136831;28;20913;-44
2021/08/13 05:02:58;;;;;;;10.83;9.20;;;20.60;99.90;;;;;;5137049;28;20473;-45
2021/08/13 05:05:25;;;;;;;16.47;9.93;;;20.60;99.90;;;;;;5136883;28;20443;-44
2021/08/13 05:07:52;;;;;;;12.27;9.00;;;20.60;99.90;;;;;;5137186;28;20520;-42
2021/08/13 05:10:18;;;;;;;9.93;8.93;;;20.60;99.90;;;;;;5136736;28;20508;-46
2021/08/13 05:12:45;;;;;;;12.00;9.57;;;20.70;99.90;;;;;;5136516;28;20850;-45
2021/08/13 05:15:14;;;;;;;11.53;9.93;;;20.70;99.90;;;;;;5136569;28;20462;-49
2021/08/13 05:17:42;;;;;;;12.53;9.90;;;20.80;99.90;;;;;;5136641;28;20435;-49
2021/08/13 05:20:10;;;;;;;11.50;10.23;;;20.80;99.90;;;;;;5136534;28;20439;-46
2021/08/13 05:22:37;;;;;;;11.23;10.13;;;20.80;99.90;;;;;;5135872;28;20500;-47
2021/08/13 05:25:04;;;;;;;10.47;9.43;;;20.80;99.90;;;;;;5135901;28;20451;-46
2021/08/13 05:27:31;;;;;;;14.50;10.50;;;20.80;99.90;;;;;;5136608;27;20446;-44
2021/08/13 05:29:58;;;;;;;14.03;11.73;;;20.80;99.90;;;;;;5139880;27;20448;-45
2021/08/13 05:32:27;;;;;;;10.77;9.60;;;20.90;99.90;;;;;;5140671;27;20471;-42
2021/08/13 05:34:53;;;;;;;10.40;9.40;;;20.90;99.90;;;;;;5140493;27;20845;-41
2021/08/13 05:37:20;;;;;;;11.87;10.20;;;21.00;99.90;;;;;;5140398;27;20451;-42
2021/08/13 05:39:47;;;;;;;11.57;10.37;;;21.00;99.90;;;;;;5140314;27;20504;-42
2021/08/13 05:42:13;;;;;;;20.97;10.63;;;21.00;99.90;;;;;;5140896;27;20447;-43
2021/08/13 05:44:40;;;;;;;11.13;9.40;;;21.00;99.90;;;;;;5140242;27;20543;-45
2021/08/13 05:47:07;;;;;;;12.70;10.47;;;21.00;99.90;;;;;;5140244;27;20800;-43
2021/08/13 05:49:35;;;;;;;10.60;8.87;;;21.00;99.90;;;;;;5139588;27;20459;-42
2021/08/13 05:52:02;;;;;;;10.80;9.63;;;20.90;99.90;;;;;;5140058;27;20479;-44
2021/08/13 05:54:30;;;;;;;14.53;10.77;;;20.90;99.90;;;;;;5138253;27;20492;-45
2021/08/13 05:56:57;;;;;;;13.73;10.03;;;20.80;99.90;;;;;;5138056;27;20479;-45
2021/08/13 05:59:24;;;;;;;11.03;9.93;;;20.80;99.90;;;;;;5138237;27;20794;-42
2021/08/13 06:01:51;;;;;;;19.70;11.40;;;20.80;99.90;;;;;;5138206;27;20496;-47
2021/08/13 06:04:17;;;;;;;13.67;10.17;;;20.80;99.90;;;;;;5139893;27;20500;-42
2021/08/13 06:06:45;;;;;;;22.50;12.97;;;20.80;99.90;;;;;;5139661;27;20492;-43
2021/08/13 06:09:12;;;;;;;11.33;10.07;;;20.80;99.90;;;;;;5141708;27;20774;-42
2021/08/13 06:11:39;;;;;;;15.30;9.10;;;20.80;99.90;;;;;;5156009;27;20466;-43
2021/08/13 06:14:06;;;;;;;18.10;10.00;;;20.90;99.90;;;;;;5157115;27;20438;-46
2021/08/13 06:16:32;;;;;;;15.63;9.70;;;21.10;99.90;;;;;;5160900;27;20502;-46
2021/08/13 06:18:59;;;;;;;14.57;10.23;;;21.20;99.90;;;;;;5149469;27;20432;-44
2021/08/13 06:21:26;;;;;;;10.63;9.70;;;21.30;99.90;;;;;;5141911;27;20524;-42
2021/08/13 06:23:53;;;;;;;14.17;10.07;;;21.40;99.90;;;;;;5139933;27;20447;-51
2021/08/13 06:26:20;;;;;;;11.53;10.27;;;21.50;99.90;;;;;;5140042;27;20764;-47
2021/08/13 06:28:47;;;;;;;11.00;9.10;;;21.60;99.90;;;;;;5152037;27;20503;-46
2021/08/13 06:31:13;;;;;;;12.60;10.00;;;21.60;99.90;;;;;;5159700;27;20507;-45
2021/08/13 06:33:40;;;;;;;16.90;10.03;;;21.70;99.90;;;;;;5157911;27;20451;-44
2021/08/13 06:36:07;;;;;;;12.70;8.60;;;21.80;99.90;;;;;;5158121;27;20443;-44
2021/08/13 06:38:33;;;;;;;13.63;10.87;;;21.90;99.90;;;;;;5154624;27;20472;-44
2021/08/13 06:41:02;;;;;;;11.37;9.80;;;22.00;99.90;;;;;;5139497;27;20442;-46
2021/08/13 06:43:28;;;;;;;10.63;9.20;;;22.00;99.90;;;;;;5136574;27;20798;-42
2021/08/13 06:45:55;;;;;;;10.97;9.10;;;22.10;99.90;;;;;;5136934;27;20568;-42
2021/08/13 06:48:22;;;;;;;11.67;10.10;;;22.20;99.90;;;;;;5137140;27;20454;-42
2021/08/13 06:50:49;;;;;;;10.60;9.47;;;22.30;99.90;;;;;;5144183;27;20458;-42
2021/08/13 06:53:16;;;;;;;12.73;9.40;;;22.40;99.90;;;;;;5145648;27;20544;-47
2021/08/13 06:55:42;;;;;;;11.10;9.60;;;22.40;99.90;;;;;;5136648;27;20512;-42
2021/08/13 06:58:10;;;;;;;15.00;10.70;;;22.50;99.90;;;;;;5153011;27;20451;-42
2021/08/13 07:00:37;;;;;;;11.47;9.13;;;22.60;99.90;;;;;;5136375;27;20450;-43
2021/08/13 07:03:05;;;;;;;16.20;9.70;;;22.60;99.90;;;;;;5136602;27;20464;-47
2021/08/13 07:05:33;;;;;;;11.10;8.37;;;22.50;99.90;;;;;;5150066;27;20509;-42
2021/08/13 07:08:07;;;;;;;11.27;9.27;;;22.60;99.90;;;;;;5151669;27;20448;-42
2021/08/13 07:10:34;;;;;;;13.17;10.43;;;22.60;99.90;;;;;;5153924;27;20496;-41
2021/08/13 07:13:00;;;;;;;10.63;9.53;;;22.70;99.90;;;;;;5136290;27;20483;-41
2021/08/13 07:15:28;;;;;;;11.50;10.00;;;22.80;99.90;;;;;;5138101;27;20456;-48
2021/08/13 07:17:55;;;;;;;10.13;9.00;;;22.90;99.90;;;;;;5138200;27;20919;-44
2021/08/13 07:20:24;;;;;;;11.63;10.03;;;23.00;99.90;;;;;;5141271;27;20461;-47
2021/08/13 07:22:51;;;;;;;10.53;9.13;;;23.00;99.90;;;;;;5150518;27;20475;-49
2021/08/13 07:25:17;;;;;;;11.20;8.93;;;23.10;99.90;;;;;;5148879;27;20435;-47
2021/08/13 07:27:44;;;;;;;11.30;9.60;;;23.20;99.90;;;;;;5143106;27;20474;-42
2021/08/13 07:30:12;;;;;;;15.10;9.90;;;23.30;99.90;;;;;;5156609;27;20500;-42
2021/08/13 07:32:41;;;;;;;10.67;9.60;;;23.40;99.90;;;;;;5151871;27;20476;-46
2021/08/13 07:35:08;;;;;;;9.67;8.70;;;23.40;99.90;;;;;;5148052;27;20447;-44
2021/08/13 07:37:35;;;;;;;14.50;10.03;;;23.50;99.90;;;;;;5157001;27;20967;-43
2021/08/13 07:40:02;;;;;;;12.83;10.23;;;23.60;99.90;;;;;;5138898;27;20481;-44
2021/08/13 07:42:29;;;;;;;11.33;9.00;;;23.80;99.90;;;;;;5135643;27;20447;-47
2021/08/13 07:44:56;;;;;;;14.90;9.60;;;24.00;99.90;;;;;;5135987;27;20451;-46
2021/08/13 07:47:23;;;;;;;15.73;9.80;;;24.20;99.90;;;;;;5147829;27;20450;-47
2021/08/13 07:49:51;;;;;;;10.47;9.37;;;24.50;99.90;;;;;;5140188;27;20525;-45
2021/08/13 07:52:17;;;;;;;10.63;8.27;;;24.90;99.90;;;;;;5151760;27;20516;-45
2021/08/13 07:54:44;;;;;;;10.50;8.20;;;25.20;99.90;;;;;;5135724;27;20455;-44
2021/08/13 07:57:11;;;;;;;9.67;8.43;;;26.10;99.90;;;;;;5146209;27;20450;-42
2021/08/13 07:59:37;;;;;;;9.53;8.53;;;27.70;99.90;;;;;;5141913;27;20582;-45
2021/08/13 08:02:04;;;;;;;8.90;8.10;;;29.50;99.90;;;;;;5135886;27;20440;-41
2021/08/13 08:04:32;;;;;;;16.70;9.07;;;31.50;95.20;;;;;;5151813;27;20901;-44
2021/08/13 08:07:00;;;;;;;10.40;8.77;;;33.20;86.40;;;;;;5136276;27;20448;-43
2021/08/13 08:09:27;;;;;;;8.93;8.13;;;34.90;73.80;;;;;;5148755;27;20446;-43
2021/08/13 08:11:54;;;;;;;19.37;9.40;;;36.40;65.90;;;;;;5156346;27;20474;-45
2021/08/13 08:14:22;;;;;;;8.77;7.87;;;37.80;57.50;;;;;;5136614;27;20455;-43
2021/08/13 08:16:49;;;;;;;10.53;9.50;;;38.80;53.10;;;;;;5135200;27;20501;-42
2021/08/13 08:19:15;;;;;;;8.87;8.07;;;39.50;49.90;;;;;;5146123;27;20450;-41
2021/08/13 08:21:43;;;;;;;11.60;8.20;;;39.90;48.00;;;;;;5156990;27;20450;-46
2021/08/13 08:24:12;;;;;;;10.07;7.97;;;40.30;47.30;;;;;;5155787;27;20905;-44
2021/08/13 08:26:39;;;;;;;12.10;8.10;;;40.50;46.40;;;;;;5141906;27;20787;-44
2021/08/13 08:29:06;;;;;;;9.00;8.13;;;40.60;45.00;;;;;;5146133;27;20458;-43
2021/08/13 08:31:33;;;;;;;9.00;7.80;;;40.80;44.60;;;;;;5148253;27;20443;-46
2021/08/13 08:33:59;;;;;;;8.73;7.93;;;40.90;44.30;;;;;;5138360;27;20501;-43
2021/08/13 08:36:26;;;;;;;8.40;7.60;;;40.70;44.00;;;;;;5151191;27;20769;-45
2021/08/13 08:38:53;;;;;;;7.13;6.53;;;40.60;43.50;;;;;;5134965;27;20454;-47
2021/08/13 08:41:21;;;;;;;8.90;8.10;;;40.70;43.30;;;;;;5146522;27;20438;-47
2021/08/13 08:43:48;;;;;;;9.03;8.13;;;40.70;43.10;;;;;;5139714;27;20478;-42
2021/08/13 08:46:19;;;;;;;7.60;6.87;;;40.70;43.60;;;;;;5151964;27;20435;-45
2021/08/13 08:48:49;;;;;;;8.27;7.57;;;40.80;42.90;;;;;;5134939;27;20508;-47
2021/08/13 08:51:18;;;;;;;12.37;8.40;;;40.70;43.00;;;;;;5146236;27;20431;-49
2021/08/13 08:53:49;;;;;;;8.60;7.90;;;40.90;42.60;;;;;;5139758;27;20490;-51
2021/08/13 08:56:17;;;;;;;7.87;7.17;;;40.90;42.90;;;;;;5137283;27;20446;-47
2021/08/13 08:58:47;;;;;;;10.10;6.70;;;41.10;42.30;;;;;;5155682;27;20443;-46
2021/08/13 09:01:14;;;;;;;7.77;6.50;;;41.00;41.80;;;;;;5144073;27;20479;-44
2021/08/13 09:03:42;;;;;;;6.93;6.33;;;40.80;41.60;;;;;;5151960;27;20534;-51
2021/08/13 09:06:09;;;;;;;8.37;7.53;;;40.70;41.20;;;;;;5142850;27;20465;-46
2021/08/13 09:08:35;;;;;;;7.93;7.20;;;40.90;42.10;;;;;;5159915;27;20442;-44
2021/08/13 09:11:02;;;;;;;9.57;8.10;;;40.70;41.90;;;;;;5160196;27;20434;-42
2021/08/13 09:13:29;;;;;;;10.77;7.23;;;40.60;42.50;;;;;;5146708;27;20487;-51
2021/08/13 09:16:09;;;;;;;15.50;7.50;;;40.50;42.00;;;;;;5139883;27;20487;-45
2021/08/13 09:18:36;;;;;;;7.07;6.37;;;40.50;41.90;;;;;;5144886;27;20529;-44
2021/08/13 09:21:03;;;;;;;10.03;6.67;;;40.20;42.20;;;;;;5159115;27;20446;-48
2021/08/13 09:23:33;;;;;;;7.30;6.67;;;40.20;42.00;;;;;;5146690;27;20439;-45
2021/08/13 10:16:30;;;;;;;9.73;5.37;;;39.90;41.60;;;;;;5203986;22;20497;-47
2021/08/13 10:18:58;;;;;;;6.73;6.13;;;39.90;40.70;;;;;;5092580;28;20439;-44
2021/08/13 10:21:26;;;;;;;6.63;6.03;;;39.60;40.70;;;;;;5093857;28;20452;-46
2021/08/13 10:23:59;;;;;;;8.80;6.17;;;39.60;40.80;;;;;;5086137;28;20962;-44
2021/08/13 10:26:29;;;;;;;6.40;5.80;;;39.70;41.10;;;;;;5079878;28;20423;-43
2021/08/13 10:28:57;;;;;;;7.07;6.40;;;39.40;41.60;;;;;;5079901;28;20451;-44
2021/08/13 10:31:24;;;;;;;6.93;6.23;;;39.20;42.20;;;;;;5079842;28;20485;-45
2021/08/13 10:33:53;;;;;;;6.40;5.80;;;38.70;42.70;;;;;;5079477;28;20853;-51
2021/08/13 10:36:21;;;;;;;6.57;5.97;;;38.60;43.20;;;;;;5078929;28;20454;-48
2021/08/13 10:38:54;;;;;;;8.53;7.00;;;38.30;44.20;;;;;;5078700;28;20825;-45
2021/08/13 10:41:24;;;;;;;8.60;6.50;;;38.10;43.90;;;;;;5078733;28;20453;-49
2021/08/13 10:44:04;;;;;;;8.20;7.40;;;38.00;43.90;;;;;;5079378;28;20434;-48
2021/08/13 10:46:33;;;;;;;9.93;7.10;;;38.00;44.20;;;;;;5079594;28;20489;-49
2021/08/13 10:49:09;;;;;;;8.13;6.60;;;37.80;44.70;;;;;;5079457;28;20508;-51
2021/08/13 10:51:40;;;;;;;8.20;6.67;;;37.60;44.20;;;;;;5079348;28;20750;-45
2021/08/13 10:54:14;;;;;;;7.20;6.40;;;37.40;44.70;;;;;;5078322;28;20484;-43
2021/08/13 10:56:42;;;;;;;8.70;6.67;;;36.80;45.00;;;;;;5078903;28;20499;-43
2021/08/13 10:59:10;;;;;;;8.03;7.23;;;36.40;46.00;;;;;;5078522;28;20455;-49
2021/08/13 11:04:16;;;;;;;6.80;6.03;;;35.30;48.30;;;;;;5655607;22;20562;-48
2021/08/13 11:06:44;;;;;;;8.40;7.60;;;35.00;48.20;;;;;;5052415;28;20482;-49
2021/08/13 11:09:11;;;;;;;8.43;6.63;;;34.90;48.90;;;;;;5045418;28;20448;-48
2021/08/13 11:12:03;;;;;;;9.80;6.53;;;34.80;48.30;;;;;;5050532;28;20497;-47
2021/08/13 11:14:32;;;;;;;9.00;7.13;;;34.60;48.90;;;;;;5050496;28;20452;-47
2021/08/13 11:16:59;;;;;;;6.73;6.10;;;34.60;48.90;;;;;;5045113;28;20533;-48
2021/08/13 11:19:28;;;;;;;6.57;5.97;;;34.30;48.80;;;;;;5042456;28;20456;-52
2021/08/13 11:21:58;;;;;;;8.30;7.20;;;33.80;49.10;;;;;;5052387;28;20458;-49
2021/08/13 11:24:26;;;;;;;10.13;6.17;;;33.60;49.90;;;;;;5040066;28;20467;-52
2021/08/13 11:27:13;;;;;;;6.97;6.20;;;33.40;50.40;;;;;;5045298;28;20502;-49
2021/08/13 11:29:45;;;;;;;7.47;5.90;;;33.30;50.90;;;;;;5049987;28;20479;-52
2021/08/13 11:32:27;;;;;;;10.40;6.10;;;33.30;50.10;;;;;;5038792;28;20443;-52
2021/08/13 11:34:58;;;;;;;7.73;6.27;;;33.30;49.60;;;;;;5046842;28;20444;-49
2021/08/13 11:37:47;;;;;;;6.73;6.13;;;33.30;49.90;;;;;;5048017;28;20436;-52
2021/08/13 11:40:50;;;;;;;8.13;7.33;;;33.30;50.40;;;;;;5038405;28;20447;-51
2021/08/13 11:43:18;;;;;;;7.27;6.57;;;33.30;51.20;;;;;;5043348;28;20431;-52
2021/08/13 11:45:48;;;;;;;7.63;6.83;;;33.00;50.00;;;;;;5050542;28;20431;-53
2021/08/13 11:48:16;;;;;;;8.00;7.30;;;32.90;50.60;;;;;;5037494;28;20423;-49
2021/08/13 11:50:45;;;;;;;8.20;6.20;;;32.90;49.90;;;;;;5047689;28;20914;-49
2021/08/13 11:53:12;;;;;;;8.83;6.83;;;32.90;50.70;;;;;;5045665;28;20475;-51
2021/08/13 11:55:41;;;;;;;6.63;5.73;;;33.00;50.00;;;;;;5039897;28;20503;-53
2021/08/13 11:58:08;;;;;;;8.20;6.90;;;33.00;49.90;;;;;;5051171;28;20443;-49
2021/08/13 12:00:38;;;;;;;9.03;7.17;;;32.80;50.00;;;;;;5040825;28;20443;-49
2021/08/13 12:03:06;;;;;;;7.93;7.07;;;32.60;50.60;;;;;;5054625;28;20978;-52
2021/08/13 12:05:35;;;;;;;9.47;6.63;;;32.60;50.70;;;;;;5040294;28;20476;-47
2021/08/13 12:08:04;;;;;;;7.60;6.90;;;32.50;51.00;;;;;;5050548;28;20439;-52
2021/08/13 12:10:33;;;;;;;8.07;6.40;;;32.50;51.40;;;;;;5039803;28;20827;-47
2021/08/13 12:13:06;;;;;;;7.37;6.60;;;32.50;51.50;;;;;;5045094;28;20503;-47
2021/08/13 12:15:35;;;;;;;7.97;5.87;;;32.50;51.30;;;;;;5048811;28;20485;-49
2021/08/13 12:18:02;;;;;;;8.27;7.33;;;32.40;51.60;;;;;;5037891;28;20448;-50
2021/08/13 12:20:30;;;;;;;8.43;7.53;;;32.40;51.00;;;;;;5049251;28;20460;-48
2021/08/13 12:23:04;;;;;;;9.00;7.27;;;32.10;51.00;;;;;;5044302;28;20443;-50
2021/08/13 12:25:33;;;;;;;11.03;6.70;;;32.00;51.20;;;;;;5054795;28;20440;-47
2021/08/13 12:28:00;;;;;;;10.23;7.63;;;32.00;51.50;;;;;;5037413;28;20614;-48
2021/08/13 12:30:27;;;;;;;7.63;6.83;;;31.90;51.50;;;;;;5054151;28;20443;-50
2021/08/13 12:32:56;;;;;;;8.23;7.43;;;31.70;51.80;;;;;;5054581;28;20490;-47
2021/08/13 12:35:24;;;;;;;7.27;6.60;;;31.70;52.20;;;;;;5054007;28;20483;-56
2021/08/13 12:37:54;;;;;;;7.07;6.37;;;31.70;52.30;;;;;;5054198;28;20439;-51
2021/08/13 12:40:22;;;;;;;8.47;6.93;;;31.70;52.20;;;;;;5054005;28;20520;-50
2021/08/13 12:42:51;;;;;;;10.20;8.53;;;31.50;52.50;;;;;;5053955;28;20451;-50
2021/08/13 12:45:20;;;;;;;7.43;6.73;;;31.40;52.90;;;;;;5054119;28;20809;-52
2021/08/13 12:47:50;;;;;;;12.63;6.77;;;31.40;53.20;;;;;;5053581;28;20440;-48
2021/08/13 12:50:20;;;;;;;8.20;7.13;;;31.50;53.40;;;;;;5054000;28;20443;-52
2021/08/13 12:53:07;;;;;;;7.67;6.90;;;31.50;52.80;;;;;;5056428;28;20530;-50
2021/08/13 12:55:43;;;;;;;8.17;7.30;;;31.50;52.90;;;;;;5054167;28;20443;-54
2021/08/13 12:58:10;;;;;;;8.30;7.20;;;31.60;53.10;;;;;;5054277;28;20438;-51
2021/08/13 13:00:38;;;;;;;8.43;6.53;;;31.60;53.30;;;;;;5054131;28;20459;-50
2021/08/13 13:03:12;;;;;;;9.77;8.33;;;31.70;53.20;;;;;;5054251;28;20505;-51
2021/08/13 13:06:01;;;;;;;9.20;8.30;;;31.80;53.20;;;;;;5053804;28;20508;-50
2021/08/13 13:08:28;;;;;;;8.93;7.10;;;31.70;52.60;;;;;;5053272;28;20439;-53
2021/08/13 13:10:56;;;;;;;9.90;7.67;;;31.60;53.50;;;;;;5053130;28;20436;-54
2021/08/13 13:13:22;;;;;;;9.70;7.13;;;31.70;54.40;;;;;;5053181;28;20513;-54
2021/08/13 13:15:49;;;;;;;8.97;8.07;;;31.70;54.50;;;;;;5052781;28;20450;-51
2021/08/13 13:18:25;;;;;;;10.03;7.60;;;31.50;54.10;;;;;;5053325;28;20474;-54
2021/08/13 13:20:51;;;;;;;9.23;7.13;;;31.50;54.50;;;;;;5053949;28;20546;-52
2021/08/13 13:23:19;;;;;;;8.60;6.93;;;31.50;54.90;;;;;;5053768;28;20908;-54
2021/08/13 13:25:46;;;;;;;9.57;7.93;;;31.40;54.50;;;;;;5052359;28;20447;-52
2021/08/13 13:28:26;;;;;;;7.57;6.70;;;31.40;55.30;;;;;;5053255;28;20546;-51
2021/08/13 13:30:53;;;;;;;9.50;8.60;;;31.30;55.00;;;;;;5052658;28;20494;-53
2021/08/13 13:33:23;;;;;;;9.20;8.00;;;31.20;55.90;;;;;;5053701;28;20501;-54
2021/08/13 13:35:55;;;;;;;8.07;7.27;;;30.90;56.60;;;;;;5053615;28;20463;-51
2021/08/13 13:38:25;;;;;;;8.20;7.40;;;30.80;57.20;;;;;;5053598;28;20463;-52
2021/08/13 13:40:52;;;;;;;6.90;6.27;;;30.70;57.80;;;;;;5053675;28;20458;-48